sensor_id;sensor_type;location;lat;lon;timestamp;P1;durP1;ratioP1;P2;durP2;ratioP2
81523;SDS011;70954;49.500;10.416;2023-08-06T00:01:09;1.15;;;0.93;;
81523;SDS011;70954;49.500;10.416;2023-08-06T00:03:35;0.95;;;0.70;;
81523;SDS011;70954;49.500;10.416;2023-08-06T00:06:00;1.00;;;0.80;;
81523;SDS011;70954;49.500;10.416;2023-08-06T00:08:25;1.05;;;0.73;;
81523;SDS011;70954;49.500;10.416;2023-08-06T00:10:51;1.60;;;0.70;;
81523;SDS011;70954;49.500;10.416;2023-08-06T00:13:17;1.60;;;0.85;;
81523;SDS011;70954;49.500;10.416;2023-08-06T00:15:42;1.15;;;0.80;;
81523;SDS011;70954;49.500;10.416;2023-08-06T00:18:07;0.80;;;0.70;;
81523;SDS011;70954;49.500;10.416;2023-08-06T00:20:33;0.90;;;0.75;;
81523;SDS011;70954;49.500;10.416;2023-08-06T00:22:58;1.48;;;0.70;;
81523;SDS011;70954;49.500;10.416;2023-08-06T00:25:24;0.80;;;0.70;;
81523;SDS011;70954;49.500;10.416;2023-08-06T00:27:49;2.28;;;0.73;;
81523;SDS011;70954;49.500;10.416;2023-08-06T00:30:15;0.75;;;0.68;;
81523;SDS011;70954;49.500;10.416;2023-08-06T00:32:40;0.68;;;0.60;;
81523;SDS011;70954;49.500;10.416;2023-08-06T00:35:06;2.10;;;0.80;;
81523;SDS011;70954;49.500;10.416;2023-08-06T00:37:32;1.95;;;0.90;;
81523;SDS011;70954;49.500;10.416;2023-08-06T00:39:57;1.10;;;0.80;;
81523;SDS011;70954;49.500;10.416;2023-08-06T00:42:22;0.70;;;0.65;;
81523;SDS011;70954;49.500;10.416;2023-08-06T00:44:48;3.40;;;0.80;;
81523;SDS011;70954;49.500;10.416;2023-08-06T00:47:13;1.10;;;0.70;;
81523;SDS011;70954;49.500;10.416;2023-08-06T00:49:40;2.17;;;0.73;;
81523;SDS011;70954;49.500;10.416;2023-08-06T00:52:06;0.82;;;0.70;;
81523;SDS011;70954;49.500;10.416;2023-08-06T00:54:34;0.90;;;0.73;;
81523;SDS011;70954;49.500;10.416;2023-08-06T00:57:00;1.10;;;0.70;;
81523;SDS011;70954;49.500;10.416;2023-08-06T00:59:26;1.27;;;0.70;;
81523;SDS011;70954;49.500;10.416;2023-08-06T01:01:53;1.35;;;0.60;;
81523;SDS011;70954;49.500;10.416;2023-08-06T01:04:18;1.00;;;0.77;;
81523;SDS011;70954;49.500;10.416;2023-08-06T01:06:45;0.80;;;0.60;;
81523;SDS011;70954;49.500;10.416;2023-08-06T01:17:31;1.73;;;0.70;;
81523;SDS011;70954;49.500;10.416;2023-08-06T01:19:57;1.23;;;0.90;;
81523;SDS011;70954;49.500;10.416;2023-08-06T01:22:22;1.10;;;0.77;;
81523;SDS011;70954;49.500;10.416;2023-08-06T01:24:48;1.50;;;0.75;;
81523;SDS011;70954;49.500;10.416;2023-08-06T01:27:27;0.90;;;0.65;;
81523;SDS011;70954;49.500;10.416;2023-08-06T01:30:16;1.25;;;0.88;;
81523;SDS011;70954;49.500;10.416;2023-08-06T01:32:49;0.80;;;0.70;;
81523;SDS011;70954;49.500;10.416;2023-08-06T01:35:18;1.10;;;0.70;;
81523;SDS011;70954;49.500;10.416;2023-08-06T01:37:44;0.70;;;0.70;;
81523;SDS011;70954;49.500;10.416;2023-08-06T01:40:11;0.80;;;0.70;;
81523;SDS011;70954;49.500;10.416;2023-08-06T01:42:38;0.98;;;0.68;;
81523;SDS011;70954;49.500;10.416;2023-08-06T01:45:04;1.25;;;0.80;;
81523;SDS011;70954;49.500;10.416;2023-08-06T01:47:34;0.82;;;0.70;;
81523;SDS011;70954;49.500;10.416;2023-08-06T01:49:59;1.13;;;0.77;;
81523;SDS011;70954;49.500;10.416;2023-08-06T01:52:25;0.82;;;0.70;;
81523;SDS011;70954;49.500;10.416;2023-08-06T01:54:50;0.80;;;0.73;;
81523;SDS011;70954;49.500;10.416;2023-08-06T01:57:16;0.70;;;0.70;;
81523;SDS011;70954;49.500;10.416;2023-08-06T01:59:41;1.20;;;0.70;;
81523;SDS011;70954;49.500;10.416;2023-08-06T02:02:06;1.80;;;0.82;;
81523;SDS011;70954;49.500;10.416;2023-08-06T02:04:32;1.33;;;0.73;;
81523;SDS011;70954;49.500;10.416;2023-08-06T02:06:57;1.50;;;0.90;;
81523;SDS011;70954;49.500;10.416;2023-08-06T02:09:23;1.02;;;0.80;;
81523;SDS011;70954;49.500;10.416;2023-08-06T02:11:48;1.55;;;0.82;;
81523;SDS011;70954;49.500;10.416;2023-08-06T02:14:14;1.45;;;0.82;;
81523;SDS011;70954;49.500;10.416;2023-08-06T02:16:39;1.10;;;0.80;;
81523;SDS011;70954;49.500;10.416;2023-08-06T02:19:05;1.13;;;0.80;;
81523;SDS011;70954;49.500;10.416;2023-08-06T02:21:30;1.00;;;0.85;;
81523;SDS011;70954;49.500;10.416;2023-08-06T02:23:56;1.45;;;0.82;;
81523;SDS011;70954;49.500;10.416;2023-08-06T02:26:21;1.70;;;1.00;;
81523;SDS011;70954;49.500;10.416;2023-08-06T02:28:46;0.80;;;0.80;;
81523;SDS011;70954;49.500;10.416;2023-08-06T02:31:12;1.00;;;0.90;;
81523;SDS011;70954;49.500;10.416;2023-08-06T02:33:37;0.80;;;0.80;;
81523;SDS011;70954;49.500;10.416;2023-08-06T02:36:03;0.77;;;0.73;;
81523;SDS011;70954;49.500;10.416;2023-08-06T02:38:29;1.00;;;0.82;;
81523;SDS011;70954;49.500;10.416;2023-08-06T02:40:55;1.00;;;0.90;;
81523;SDS011;70954;49.500;10.416;2023-08-06T02:43:20;1.10;;;0.85;;
81523;SDS011;70954;49.500;10.416;2023-08-06T02:45:46;0.73;;;0.73;;
81523;SDS011;70954;49.500;10.416;2023-08-06T02:48:11;1.10;;;0.80;;
81523;SDS011;70954;49.500;10.416;2023-08-06T02:50:37;1.02;;;0.75;;
81523;SDS011;70954;49.500;10.416;2023-08-06T02:53:06;1.98;;;0.90;;
81523;SDS011;70954;49.500;10.416;2023-08-06T02:55:33;0.82;;;0.82;;
81523;SDS011;70954;49.500;10.416;2023-08-06T02:57:58;1.00;;;0.90;;
81523;SDS011;70954;49.500;10.416;2023-08-06T03:00:24;1.73;;;0.80;;
81523;SDS011;70954;49.500;10.416;2023-08-06T03:02:50;2.28;;;0.90;;
81523;SDS011;70954;49.500;10.416;2023-08-06T03:05:15;1.88;;;0.88;;
81523;SDS011;70954;49.500;10.416;2023-08-06T03:07:41;1.00;;;0.90;;
81523;SDS011;70954;49.500;10.416;2023-08-06T03:10:06;1.50;;;0.80;;
81523;SDS011;70954;49.500;10.416;2023-08-06T03:12:32;1.52;;;0.90;;
81523;SDS011;70954;49.500;10.416;2023-08-06T03:14:57;1.52;;;0.90;;
81523;SDS011;70954;49.500;10.416;2023-08-06T03:17:23;0.80;;;0.73;;
81523;SDS011;70954;49.500;10.416;2023-08-06T03:19:48;1.05;;;0.82;;
81523;SDS011;70954;49.500;10.416;2023-08-06T03:22:14;1.10;;;0.80;;
81523;SDS011;70954;49.500;10.416;2023-08-06T03:24:39;0.80;;;0.70;;
81523;SDS011;70954;49.500;10.416;2023-08-06T03:27:05;1.35;;;0.85;;
81523;SDS011;70954;49.500;10.416;2023-08-06T03:29:30;1.27;;;0.90;;
81523;SDS011;70954;49.500;10.416;2023-08-06T03:31:56;1.00;;;0.90;;
81523;SDS011;70954;49.500;10.416;2023-08-06T03:34:21;1.20;;;0.80;;
81523;SDS011;70954;49.500;10.416;2023-08-06T03:36:47;1.05;;;0.82;;
81523;SDS011;70954;49.500;10.416;2023-08-06T03:39:12;1.33;;;0.80;;
81523;SDS011;70954;49.500;10.416;2023-08-06T03:41:38;0.73;;;0.73;;
81523;SDS011;70954;49.500;10.416;2023-08-06T03:44:03;1.10;;;0.90;;
81523;SDS011;70954;49.500;10.416;2023-08-06T03:46:29;0.90;;;0.80;;
81523;SDS011;70954;49.500;10.416;2023-08-06T03:48:54;1.85;;;0.80;;
81523;SDS011;70954;49.500;10.416;2023-08-06T03:51:20;1.10;;;0.82;;
81523;SDS011;70954;49.500;10.416;2023-08-06T03:53:45;0.90;;;0.80;;
81523;SDS011;70954;49.500;10.416;2023-08-06T03:56:11;1.17;;;0.90;;
81523;SDS011;70954;49.500;10.416;2023-08-06T03:58:36;1.20;;;0.80;;
81523;SDS011;70954;49.500;10.416;2023-08-06T04:01:02;1.23;;;0.98;;
81523;SDS011;70954;49.500;10.416;2023-08-06T04:03:28;0.80;;;0.73;;
81523;SDS011;70954;49.500;10.416;2023-08-06T04:05:54;2.63;;;0.98;;
81523;SDS011;70954;49.500;10.416;2023-08-06T04:08:19;1.15;;;0.88;;
81523;SDS011;70954;49.500;10.416;2023-08-06T04:10:45;1.27;;;0.80;;
81523;SDS011;70954;49.500;10.416;2023-08-06T04:13:13;0.90;;;0.80;;
81523;SDS011;70954;49.500;10.416;2023-08-06T04:15:39;1.10;;;1.00;;
81523;SDS011;70954;49.500;10.416;2023-08-06T04:18:04;2.50;;;0.90;;
81523;SDS011;70954;49.500;10.416;2023-08-06T04:20:30;1.60;;;0.90;;
81523;SDS011;70954;49.500;10.416;2023-08-06T04:22:55;2.30;;;0.93;;
81523;SDS011;70954;49.500;10.416;2023-08-06T04:25:21;1.10;;;1.00;;
81523;SDS011;70954;49.500;10.416;2023-08-06T04:27:47;1.75;;;0.93;;
81523;SDS011;70954;49.500;10.416;2023-08-06T04:30:12;1.00;;;0.90;;
81523;SDS011;70954;49.500;10.416;2023-08-06T04:32:39;1.02;;;0.85;;
81523;SDS011;70954;49.500;10.416;2023-08-06T04:35:05;1.10;;;1.00;;
81523;SDS011;70954;49.500;10.416;2023-08-06T04:37:31;1.48;;;1.00;;
81523;SDS011;70954;49.500;10.416;2023-08-06T04:39:56;1.05;;;0.93;;
81523;SDS011;70954;49.500;10.416;2023-08-06T04:42:22;1.42;;;1.02;;
81523;SDS011;70954;49.500;10.416;2023-08-06T04:44:47;1.55;;;1.00;;
81523;SDS011;70954;49.500;10.416;2023-08-06T04:47:13;1.20;;;0.90;;
81523;SDS011;70954;49.500;10.416;2023-08-06T04:49:38;1.33;;;1.02;;
81523;SDS011;70954;49.500;10.416;2023-08-06T04:52:04;4.15;;;1.40;;
81523;SDS011;70954;49.500;10.416;2023-08-06T04:54:30;1.30;;;1.13;;
81523;SDS011;70954;49.500;10.416;2023-08-06T04:56:55;1.13;;;1.00;;
81523;SDS011;70954;49.500;10.416;2023-08-06T04:59:21;3.33;;;1.15;;
81523;SDS011;70954;49.500;10.416;2023-08-06T05:01:46;1.45;;;1.00;;
81523;SDS011;70954;49.500;10.416;2023-08-06T05:04:11;2.10;;;1.10;;
81523;SDS011;70954;49.500;10.416;2023-08-06T05:06:37;1.75;;;1.20;;
81523;SDS011;70954;49.500;10.416;2023-08-06T05:09:02;1.50;;;1.20;;
81523;SDS011;70954;49.500;10.416;2023-08-06T05:11:28;2.38;;;1.10;;
81523;SDS011;70954;49.500;10.416;2023-08-06T05:13:53;2.15;;;1.40;;
81523;SDS011;70954;49.500;10.416;2023-08-06T05:16:19;1.95;;;1.33;;
81523;SDS011;70954;49.500;10.416;2023-08-06T05:18:44;2.15;;;1.48;;
81523;SDS011;70954;49.500;10.416;2023-08-06T05:21:10;1.40;;;1.23;;
81523;SDS011;70954;49.500;10.416;2023-08-06T05:23:35;1.35;;;1.17;;
81523;SDS011;70954;49.500;10.416;2023-08-06T05:26:00;2.13;;;1.17;;
81523;SDS011;70954;49.500;10.416;2023-08-06T05:28:26;2.38;;;1.00;;
81523;SDS011;70954;49.500;10.416;2023-08-06T05:30:51;2.67;;;1.20;;
81523;SDS011;70954;49.500;10.416;2023-08-06T05:33:17;1.23;;;1.10;;
81523;SDS011;70954;49.500;10.416;2023-08-06T05:35:42;1.45;;;1.13;;
81523;SDS011;70954;49.500;10.416;2023-08-06T05:38:08;1.73;;;1.10;;
81523;SDS011;70954;49.500;10.416;2023-08-06T05:40:33;1.92;;;1.20;;
81523;SDS011;70954;49.500;10.416;2023-08-06T05:42:59;1.45;;;1.10;;
81523;SDS011;70954;49.500;10.416;2023-08-06T05:45:25;1.48;;;1.00;;
81523;SDS011;70954;49.500;10.416;2023-08-06T05:47:50;1.85;;;1.10;;
81523;SDS011;70954;49.500;10.416;2023-08-06T05:50:16;2.13;;;1.20;;
81523;SDS011;70954;49.500;10.416;2023-08-06T05:52:42;0.90;;;0.80;;
81523;SDS011;70954;49.500;10.416;2023-08-06T05:55:08;1.30;;;1.00;;
81523;SDS011;70954;49.500;10.416;2023-08-06T05:57:33;1.27;;;1.08;;
81523;SDS011;70954;49.500;10.416;2023-08-06T05:59:59;1.83;;;1.10;;
81523;SDS011;70954;49.500;10.416;2023-08-06T06:02:24;1.50;;;1.20;;
81523;SDS011;70954;49.500;10.416;2023-08-06T06:04:49;2.00;;;1.10;;
81523;SDS011;70954;49.500;10.416;2023-08-06T06:07:15;2.20;;;0.93;;
81523;SDS011;70954;49.500;10.416;2023-08-06T06:09:40;2.38;;;1.17;;
81523;SDS011;70954;49.500;10.416;2023-08-06T06:12:06;1.33;;;1.10;;
81523;SDS011;70954;49.500;10.416;2023-08-06T06:14:32;3.00;;;1.10;;
81523;SDS011;70954;49.500;10.416;2023-08-06T06:16:58;2.30;;;1.00;;
81523;SDS011;70954;49.500;10.416;2023-08-06T06:19:24;1.67;;;1.17;;
81523;SDS011;70954;49.500;10.416;2023-08-06T06:21:50;1.48;;;1.13;;
81523;SDS011;70954;49.500;10.416;2023-08-06T06:24:15;1.13;;;1.00;;
81523;SDS011;70954;49.500;10.416;2023-08-06T06:26:40;1.70;;;1.00;;
81523;SDS011;70954;49.500;10.416;2023-08-06T06:29:06;1.50;;;0.90;;
81523;SDS011;70954;49.500;10.416;2023-08-06T06:31:31;1.02;;;0.90;;
81523;SDS011;70954;49.500;10.416;2023-08-06T06:33:57;2.55;;;1.00;;
81523;SDS011;70954;49.500;10.416;2023-08-06T06:36:22;1.33;;;0.95;;
81523;SDS011;70954;49.500;10.416;2023-08-06T06:38:48;1.40;;;0.95;;
81523;SDS011;70954;49.500;10.416;2023-08-06T06:41:13;2.45;;;1.08;;
81523;SDS011;70954;49.500;10.416;2023-08-06T06:43:39;1.95;;;1.10;;
81523;SDS011;70954;49.500;10.416;2023-08-06T06:46:04;1.40;;;1.00;;
81523;SDS011;70954;49.500;10.416;2023-08-06T06:48:31;1.20;;;0.80;;
81523;SDS011;70954;49.500;10.416;2023-08-06T06:50:58;2.30;;;0.95;;
81523;SDS011;70954;49.500;10.416;2023-08-06T06:53:23;1.38;;;1.20;;
81523;SDS011;70954;49.500;10.416;2023-08-06T06:55:49;0.95;;;0.80;;
81523;SDS011;70954;49.500;10.416;2023-08-06T06:58:15;1.60;;;0.80;;
81523;SDS011;70954;49.500;10.416;2023-08-06T07:00:40;1.30;;;0.80;;
81523;SDS011;70954;49.500;10.416;2023-08-06T07:03:06;1.42;;;0.55;;
81523;SDS011;70954;49.500;10.416;2023-08-06T07:05:31;0.60;;;0.60;;
81523;SDS011;70954;49.500;10.416;2023-08-06T07:07:57;0.43;;;0.43;;
81523;SDS011;70954;49.500;10.416;2023-08-06T07:10:23;0.47;;;0.40;;
81523;SDS011;70954;49.500;10.416;2023-08-06T07:12:48;0.40;;;0.40;;
81523;SDS011;70954;49.500;10.416;2023-08-06T07:15:14;0.70;;;0.40;;
81523;SDS011;70954;49.500;10.416;2023-08-06T07:17:39;1.13;;;0.40;;
81523;SDS011;70954;49.500;10.416;2023-08-06T07:20:05;0.43;;;0.32;;
81523;SDS011;70954;49.500;10.416;2023-08-06T07:22:32;0.30;;;0.30;;
81523;SDS011;70954;49.500;10.416;2023-08-06T07:24:57;0.82;;;0.40;;
81523;SDS011;70954;49.500;10.416;2023-08-06T07:27:23;0.45;;;0.30;;
81523;SDS011;70954;49.500;10.416;2023-08-06T07:29:49;1.15;;;0.50;;
81523;SDS011;70954;49.500;10.416;2023-08-06T07:32:15;0.57;;;0.40;;
81523;SDS011;70954;49.500;10.416;2023-08-06T07:34:40;1.10;;;0.40;;
81523;SDS011;70954;49.500;10.416;2023-08-06T07:37:06;0.38;;;0.30;;
81523;SDS011;70954;49.500;10.416;2023-08-06T07:39:31;0.20;;;0.20;;
81523;SDS011;70954;49.500;10.416;2023-08-06T07:41:57;0.30;;;0.30;;
81523;SDS011;70954;49.500;10.416;2023-08-06T07:44:22;1.30;;;0.40;;
81523;SDS011;70954;49.500;10.416;2023-08-06T07:46:48;0.30;;;0.30;;
81523;SDS011;70954;49.500;10.416;2023-08-06T07:49:13;0.40;;;0.30;;
81523;SDS011;70954;49.500;10.416;2023-08-06T07:51:38;0.63;;;0.40;;
81523;SDS011;70954;49.500;10.416;2023-08-06T07:54:04;0.50;;;0.30;;
81523;SDS011;70954;49.500;10.416;2023-08-06T07:56:30;1.33;;;0.40;;
81523;SDS011;70954;49.500;10.416;2023-08-06T07:58:56;0.85;;;0.40;;
81523;SDS011;70954;49.500;10.416;2023-08-06T08:01:21;0.85;;;0.43;;
81523;SDS011;70954;49.500;10.416;2023-08-06T08:03:47;0.40;;;0.38;;
81523;SDS011;70954;49.500;10.416;2023-08-06T08:06:12;1.17;;;0.50;;
81523;SDS011;70954;49.500;10.416;2023-08-06T08:08:37;0.70;;;0.47;;
81523;SDS011;70954;49.500;10.416;2023-08-06T08:11:03;0.50;;;0.30;;
81523;SDS011;70954;49.500;10.416;2023-08-06T08:13:28;0.30;;;0.30;;
81523;SDS011;70954;49.500;10.416;2023-08-06T08:15:57;0.28;;;0.28;;
81523;SDS011;70954;49.500;10.416;2023-08-06T08:18:23;1.27;;;0.40;;
81523;SDS011;70954;49.500;10.416;2023-08-06T08:20:49;0.30;;;0.30;;
81523;SDS011;70954;49.500;10.416;2023-08-06T08:23:14;0.40;;;0.38;;
81523;SDS011;70954;49.500;10.416;2023-08-06T08:25:39;0.43;;;0.38;;
81523;SDS011;70954;49.500;10.416;2023-08-06T08:28:05;0.40;;;0.40;;
81523;SDS011;70954;49.500;10.416;2023-08-06T08:30:30;1.50;;;0.35;;
81523;SDS011;70954;49.500;10.416;2023-08-06T08:32:56;0.75;;;0.30;;
81523;SDS011;70954;49.500;10.416;2023-08-06T08:35:21;0.80;;;0.35;;
81523;SDS011;70954;49.500;10.416;2023-08-06T08:37:47;0.40;;;0.30;;
81523;SDS011;70954;49.500;10.416;2023-08-06T08:40:13;0.25;;;0.20;;
81523;SDS011;70954;49.500;10.416;2023-08-06T08:42:39;0.47;;;0.30;;
81523;SDS011;70954;49.500;10.416;2023-08-06T08:45:06;0.98;;;0.30;;
81523;SDS011;70954;49.500;10.416;2023-08-06T08:47:36;3.92;;;0.30;;
81523;SDS011;70954;49.500;10.416;2023-08-06T08:50:03;0.40;;;0.40;;
81523;SDS011;70954;49.500;10.416;2023-08-06T08:52:31;0.57;;;0.30;;
81523;SDS011;70954;49.500;10.416;2023-08-06T08:54:58;0.28;;;0.25;;
81523;SDS011;70954;49.500;10.416;2023-08-06T08:57:26;0.65;;;0.32;;
81523;SDS011;70954;49.500;10.416;2023-08-06T08:59:51;0.22;;;0.22;;
81523;SDS011;70954;49.500;10.416;2023-08-06T09:02:17;0.20;;;0.20;;
81523;SDS011;70954;49.500;10.416;2023-08-06T09:04:43;0.28;;;0.28;;
81523;SDS011;70954;49.500;10.416;2023-08-06T09:07:09;0.45;;;0.30;;
81523;SDS011;70954;49.500;10.416;2023-08-06T09:09:38;1.05;;;0.30;;
81523;SDS011;70954;49.500;10.416;2023-08-06T09:12:06;0.20;;;0.20;;
81523;SDS011;70954;49.500;10.416;2023-08-06T09:14:39;0.30;;;0.30;;
81523;SDS011;70954;49.500;10.416;2023-08-06T09:17:05;0.50;;;0.20;;
81523;SDS011;70954;49.500;10.416;2023-08-06T09:19:30;0.32;;;0.30;;
81523;SDS011;70954;49.500;10.416;2023-08-06T09:21:56;0.60;;;0.40;;
81523;SDS011;70954;49.500;10.416;2023-08-06T09:24:21;0.30;;;0.30;;
81523;SDS011;70954;49.500;10.416;2023-08-06T09:26:47;0.30;;;0.20;;
81523;SDS011;70954;49.500;10.416;2023-08-06T09:29:13;0.30;;;0.30;;
81523;SDS011;70954;49.500;10.416;2023-08-06T09:31:45;0.50;;;0.38;;
81523;SDS011;70954;49.500;10.416;2023-08-06T09:34:16;0.30;;;0.30;;
81523;SDS011;70954;49.500;10.416;2023-08-06T09:36:43;0.20;;;0.20;;
81523;SDS011;70954;49.500;10.416;2023-08-06T09:39:13;0.30;;;0.30;;
81523;SDS011;70954;49.500;10.416;2023-08-06T09:41:39;0.20;;;0.20;;
81523;SDS011;70954;49.500;10.416;2023-08-06T09:44:04;0.20;;;0.20;;
81523;SDS011;70954;49.500;10.416;2023-08-06T09:46:31;0.20;;;0.20;;
81523;SDS011;70954;49.500;10.416;2023-08-06T09:48:57;0.28;;;0.20;;
81523;SDS011;70954;49.500;10.416;2023-08-06T09:51:22;0.30;;;0.30;;
81523;SDS011;70954;49.500;10.416;2023-08-06T09:53:48;0.20;;;0.20;;
81523;SDS011;70954;49.500;10.416;2023-08-06T09:56:13;4.18;;;1.98;;
81523;SDS011;70954;49.500;10.416;2023-08-06T09:58:42;1.60;;;1.23;;
81523;SDS011;70954;49.500;10.416;2023-08-06T10:01:08;0.60;;;0.60;;
81523;SDS011;70954;49.500;10.416;2023-08-06T10:03:36;0.38;;;0.38;;
81523;SDS011;70954;49.500;10.416;2023-08-06T10:06:03;0.32;;;0.30;;
81523;SDS011;70954;49.500;10.416;2023-08-06T10:08:29;0.52;;;0.30;;
81523;SDS011;70954;49.500;10.416;2023-08-06T10:10:55;0.20;;;0.20;;
81523;SDS011;70954;49.500;10.416;2023-08-06T10:13:20;0.30;;;0.30;;
81523;SDS011;70954;49.500;10.416;2023-08-06T10:15:47;0.35;;;0.30;;
81523;SDS011;70954;49.500;10.416;2023-08-06T10:18:14;0.30;;;0.30;;
81523;SDS011;70954;49.500;10.416;2023-08-06T10:20:41;0.40;;;0.20;;
81523;SDS011;70954;49.500;10.416;2023-08-06T10:23:07;0.20;;;0.20;;
81523;SDS011;70954;49.500;10.416;2023-08-06T10:25:33;0.13;;;0.13;;
81523;SDS011;70954;49.500;10.416;2023-08-06T10:27:59;0.25;;;0.25;;
81523;SDS011;70954;49.500;10.416;2023-08-06T10:32:57;0.20;;;0.20;;
81523;SDS011;70954;49.500;10.416;2023-08-06T10:35:27;0.30;;;0.30;;
81523;SDS011;70954;49.500;10.416;2023-08-06T10:37:53;0.17;;;0.17;;
81523;SDS011;70954;49.500;10.416;2023-08-06T10:40:20;0.10;;;0.10;;
81523;SDS011;70954;49.500;10.416;2023-08-06T10:42:46;0.10;;;0.10;;
81523;SDS011;70954;49.500;10.416;2023-08-06T10:47:38;0.15;;;0.15;;
81523;SDS011;70954;49.500;10.416;2023-08-06T10:50:04;0.20;;;0.20;;
81523;SDS011;70954;49.500;10.416;2023-08-06T10:52:30;0.40;;;0.40;;
81523;SDS011;70954;49.500;10.416;2023-08-06T10:54:56;0.52;;;0.30;;
81523;SDS011;70954;49.500;10.416;2023-08-06T10:57:21;0.30;;;0.30;;
81523;SDS011;70954;49.500;10.416;2023-08-06T10:59:47;0.40;;;0.40;;
81523;SDS011;70954;49.500;10.416;2023-08-06T11:02:12;0.30;;;0.30;;
81523;SDS011;70954;49.500;10.416;2023-08-06T11:04:38;0.40;;;0.40;;
81523;SDS011;70954;49.500;10.416;2023-08-06T11:07:04;0.60;;;0.50;;
81523;SDS011;70954;49.500;10.416;2023-08-06T11:09:32;0.30;;;0.30;;
81523;SDS011;70954;49.500;10.416;2023-08-06T11:11:57;0.30;;;0.30;;
81523;SDS011;70954;49.500;10.416;2023-08-06T11:14:23;0.40;;;0.40;;
81523;SDS011;70954;49.500;10.416;2023-08-06T11:16:48;0.28;;;0.28;;
81523;SDS011;70954;49.500;10.416;2023-08-06T11:19:15;0.17;;;0.17;;
81523;SDS011;70954;49.500;10.416;2023-08-06T11:21:41;0.20;;;0.20;;
81523;SDS011;70954;49.500;10.416;2023-08-06T11:24:07;0.40;;;0.30;;
81523;SDS011;70954;49.500;10.416;2023-08-06T11:26:34;0.20;;;0.20;;
81523;SDS011;70954;49.500;10.416;2023-08-06T11:29:02;0.30;;;0.30;;
81523;SDS011;70954;49.500;10.416;2023-08-06T11:31:28;0.20;;;0.20;;
81523;SDS011;70954;49.500;10.416;2023-08-06T11:33:54;0.25;;;0.25;;
81523;SDS011;70954;49.500;10.416;2023-08-06T11:36:32;0.20;;;0.20;;
81523;SDS011;70954;49.500;10.416;2023-08-06T11:39:01;0.30;;;0.30;;
81523;SDS011;70954;49.500;10.416;2023-08-06T11:41:28;0.30;;;0.30;;
81523;SDS011;70954;49.500;10.416;2023-08-06T11:43:54;0.20;;;0.20;;
81523;SDS011;70954;49.500;10.416;2023-08-06T11:46:19;0.32;;;0.32;;
81523;SDS011;70954;49.500;10.416;2023-08-06T11:48:50;0.40;;;0.40;;
81523;SDS011;70954;49.500;10.416;2023-08-06T11:51:22;0.30;;;0.30;;
81523;SDS011;70954;49.500;10.416;2023-08-06T11:56:14;0.40;;;0.40;;
81523;SDS011;70954;49.500;10.416;2023-08-06T11:58:40;0.30;;;0.30;;
81523;SDS011;70954;49.500;10.416;2023-08-06T12:01:06;0.30;;;0.30;;
81523;SDS011;70954;49.500;10.416;2023-08-06T12:03:32;0.38;;;0.30;;
81523;SDS011;70954;49.500;10.416;2023-08-06T12:05:57;0.30;;;0.30;;
81523;SDS011;70954;49.500;10.416;2023-08-06T12:08:26;0.30;;;0.30;;
81523;SDS011;70954;49.500;10.416;2023-08-06T12:10:51;0.20;;;0.20;;
81523;SDS011;70954;49.500;10.416;2023-08-06T12:13:17;0.77;;;0.20;;
81523;SDS011;70954;49.500;10.416;2023-08-06T12:15:42;0.22;;;0.20;;
81523;SDS011;70954;49.500;10.416;2023-08-06T12:18:08;0.95;;;0.30;;
81523;SDS011;70954;49.500;10.416;2023-08-06T12:20:33;0.32;;;0.20;;
81523;SDS011;70954;49.500;10.416;2023-08-06T12:22:59;0.20;;;0.20;;
81523;SDS011;70954;49.500;10.416;2023-08-06T12:25:24;0.20;;;0.20;;
81523;SDS011;70954;49.500;10.416;2023-08-06T12:27:50;0.63;;;0.20;;
81523;SDS011;70954;49.500;10.416;2023-08-06T12:30:15;0.30;;;0.30;;
81523;SDS011;70954;49.500;10.416;2023-08-06T12:32:41;0.35;;;0.20;;
81523;SDS011;70954;49.500;10.416;2023-08-06T12:35:06;0.22;;;0.22;;
81523;SDS011;70954;49.500;10.416;2023-08-06T12:37:33;0.20;;;0.20;;
81523;SDS011;70954;49.500;10.416;2023-08-06T12:39:59;0.20;;;0.20;;
81523;SDS011;70954;49.500;10.416;2023-08-06T12:42:24;0.40;;;0.30;;
81523;SDS011;70954;49.500;10.416;2023-08-06T12:44:50;0.20;;;0.20;;
81523;SDS011;70954;49.500;10.416;2023-08-06T12:47:16;0.30;;;0.30;;
81523;SDS011;70954;49.500;10.416;2023-08-06T12:49:41;0.40;;;0.20;;
81523;SDS011;70954;49.500;10.416;2023-08-06T12:52:07;0.20;;;0.20;;
81523;SDS011;70954;49.500;10.416;2023-08-06T12:54:32;0.20;;;0.20;;
81523;SDS011;70954;49.500;10.416;2023-08-06T12:56:58;0.20;;;0.20;;
81523;SDS011;70954;49.500;10.416;2023-08-06T12:59:23;0.20;;;0.20;;
81523;SDS011;70954;49.500;10.416;2023-08-06T13:01:48;0.20;;;0.20;;
81523;SDS011;70954;49.500;10.416;2023-08-06T13:04:14;0.28;;;0.28;;
81523;SDS011;70954;49.500;10.416;2023-08-06T13:06:39;0.93;;;0.20;;
81523;SDS011;70954;49.500;10.416;2023-08-06T13:09:07;0.10;;;0.10;;
81523;SDS011;70954;49.500;10.416;2023-08-06T13:11:33;0.30;;;0.20;;
81523;SDS011;70954;49.500;10.416;2023-08-06T13:16:32;0.20;;;0.20;;
81523;SDS011;70954;49.500;10.416;2023-08-06T13:18:58;0.20;;;0.20;;
81523;SDS011;70954;49.500;10.416;2023-08-06T13:21:24;0.20;;;0.20;;
81523;SDS011;70954;49.500;10.416;2023-08-06T13:23:49;0.20;;;0.20;;
81523;SDS011;70954;49.500;10.416;2023-08-06T13:26:14;0.20;;;0.20;;
81523;SDS011;70954;49.500;10.416;2023-08-06T13:28:40;0.60;;;0.20;;
81523;SDS011;70954;49.500;10.416;2023-08-06T13:31:05;0.20;;;0.20;;
81523;SDS011;70954;49.500;10.416;2023-08-06T13:33:31;0.20;;;0.20;;
81523;SDS011;70954;49.500;10.416;2023-08-06T13:35:56;0.30;;;0.30;;
81523;SDS011;70954;49.500;10.416;2023-08-06T13:38:22;0.20;;;0.20;;
81523;SDS011;70954;49.500;10.416;2023-08-06T13:40:47;0.20;;;0.20;;
81523;SDS011;70954;49.500;10.416;2023-08-06T13:43:13;0.20;;;0.20;;
81523;SDS011;70954;49.500;10.416;2023-08-06T13:45:38;0.20;;;0.20;;
81523;SDS011;70954;49.500;10.416;2023-08-06T13:48:04;0.20;;;0.20;;
81523;SDS011;70954;49.500;10.416;2023-08-06T13:50:29;0.20;;;0.20;;
81523;SDS011;70954;49.500;10.416;2023-08-06T13:52:55;0.20;;;0.20;;
81523;SDS011;70954;49.500;10.416;2023-08-06T13:55:20;0.20;;;0.20;;
81523;SDS011;70954;49.500;10.416;2023-08-06T13:57:46;0.20;;;0.20;;
81523;SDS011;70954;49.500;10.416;2023-08-06T14:00:12;0.20;;;0.20;;
81523;SDS011;70954;49.500;10.416;2023-08-06T14:02:37;0.30;;;0.30;;
81523;SDS011;70954;49.500;10.416;2023-08-06T14:05:03;0.17;;;0.17;;
81523;SDS011;70954;49.500;10.416;2023-08-06T14:07:29;0.25;;;0.25;;
81523;SDS011;70954;49.500;10.416;2023-08-06T14:09:54;0.20;;;0.20;;
81523;SDS011;70954;49.500;10.416;2023-08-06T14:12:20;0.50;;;0.20;;
81523;SDS011;70954;49.500;10.416;2023-08-06T14:14:45;0.25;;;0.25;;
81523;SDS011;70954;49.500;10.416;2023-08-06T14:17:11;0.25;;;0.20;;
81523;SDS011;70954;49.500;10.416;2023-08-06T14:19:36;0.60;;;0.60;;
81523;SDS011;70954;49.500;10.416;2023-08-06T14:22:01;0.30;;;0.30;;
81523;SDS011;70954;49.500;10.416;2023-08-06T14:24:27;0.50;;;0.40;;
81523;SDS011;70954;49.500;10.416;2023-08-06T14:26:53;0.35;;;0.35;;
81523;SDS011;70954;49.500;10.416;2023-08-06T14:29:18;0.32;;;0.32;;
81523;SDS011;70954;49.500;10.416;2023-08-06T14:31:43;0.30;;;0.30;;
81523;SDS011;70954;49.500;10.416;2023-08-06T14:34:09;0.30;;;0.30;;
81523;SDS011;70954;49.500;10.416;2023-08-06T14:36:34;1.55;;;0.50;;
81523;SDS011;70954;49.500;10.416;2023-08-06T14:39:00;0.80;;;0.60;;
81523;SDS011;70954;49.500;10.416;2023-08-06T14:41:25;0.70;;;0.40;;
81523;SDS011;70954;49.500;10.416;2023-08-06T14:43:51;0.40;;;0.40;;